sensor_id;sensor_type;location;lat;lon;timestamp;temperature;humidity
74153;DHT22;62505;46.070;14.492;2023-08-08T00:01:59;23.60;63.90
74153;DHT22;62505;46.070;14.492;2023-08-08T00:04:26;23.60;63.90
74153;DHT22;62505;46.070;14.492;2023-08-08T00:06:53;23.60;63.80
74153;DHT22;62505;46.070;14.492;2023-08-08T00:09:21;23.60;63.70
74153;DHT22;62505;46.070;14.492;2023-08-08T00:11:48;23.60;63.70
74153;DHT22;62505;46.070;14.492;2023-08-08T00:14:15;23.60;63.70
74153;DHT22;62505;46.070;14.492;2023-08-08T00:16:42;23.60;63.70
74153;DHT22;62505;46.070;14.492;2023-08-08T00:19:09;23.60;63.80
74153;DHT22;62505;46.070;14.492;2023-08-08T00:21:36;23.60;63.70
74153;DHT22;62505;46.070;14.492;2023-08-08T00:24:03;23.60;63.50
74153;DHT22;62505;46.070;14.492;2023-08-08T00:26:32;23.60;63.50
74153;DHT22;62505;46.070;14.492;2023-08-08T00:28:59;23.60;63.70
74153;DHT22;62505;46.070;14.492;2023-08-08T00:31:26;23.60;63.50
74153;DHT22;62505;46.070;14.492;2023-08-08T00:33:53;23.60;63.50
74153;DHT22;62505;46.070;14.492;2023-08-08T00:36:20;23.60;63.40
74153;DHT22;62505;46.070;14.492;2023-08-08T00:38:47;23.60;63.40
74153;DHT22;62505;46.070;14.492;2023-08-08T00:41:14;23.60;63.40
74153;DHT22;62505;46.070;14.492;2023-08-08T00:43:43;23.60;63.10
74153;DHT22;62505;46.070;14.492;2023-08-08T00:46:10;23.60;63.30
74153;DHT22;62505;46.070;14.492;2023-08-08T00:48:38;23.60;63.30
74153;DHT22;62505;46.070;14.492;2023-08-08T00:51:05;23.60;63.40
74153;DHT22;62505;46.070;14.492;2023-08-08T00:53:32;23.60;63.30
74153;DHT22;62505;46.070;14.492;2023-08-08T00:55:59;23.60;63.30
74153;DHT22;62505;46.070;14.492;2023-08-08T00:58:27;23.60;63.20
74153;DHT22;62505;46.070;14.492;2023-08-08T01:00:56;23.60;63.20
74153;DHT22;62505;46.070;14.492;2023-08-08T01:03:25;23.50;63.00
74153;DHT22;62505;46.070;14.492;2023-08-08T01:05:59;23.60;63.20
74153;DHT22;62505;46.070;14.492;2023-08-08T01:08:35;23.50;63.10
74153;DHT22;62505;46.070;14.492;2023-08-08T01:11:04;23.60;63.20
74153;DHT22;62505;46.070;14.492;2023-08-08T01:13:32;23.50;62.90
74153;DHT22;62505;46.070;14.492;2023-08-08T01:16:03;23.50;62.90
74153;DHT22;62505;46.070;14.492;2023-08-08T01:18:32;23.50;62.90
74153;DHT22;62505;46.070;14.492;2023-08-08T01:20:59;23.50;63.00
74153;DHT22;62505;46.070;14.492;2023-08-08T01:23:31;23.60;63.00
74153;DHT22;62505;46.070;14.492;2023-08-08T01:26:01;23.50;62.80
74153;DHT22;62505;46.070;14.492;2023-08-08T01:28:28;23.50;62.80
74153;DHT22;62505;46.070;14.492;2023-08-08T01:30:55;23.50;62.80
74153;DHT22;62505;46.070;14.492;2023-08-08T01:33:22;23.50;62.60
74153;DHT22;62505;46.070;14.492;2023-08-08T01:35:54;23.50;62.50
74153;DHT22;62505;46.070;14.492;2023-08-08T01:38:26;23.50;62.40
74153;DHT22;62505;46.070;14.492;2023-08-08T01:40:55;23.50;62.40
74153;DHT22;62505;46.070;14.492;2023-08-08T01:43:25;23.50;62.40
74153;DHT22;62505;46.070;14.492;2023-08-08T01:45:53;23.50;62.40
74153;DHT22;62505;46.070;14.492;2023-08-08T01:48:21;23.50;62.30
74153;DHT22;62505;46.070;14.492;2023-08-08T01:50:48;23.50;62.10
74153;DHT22;62505;46.070;14.492;2023-08-08T01:53:15;23.50;62.10
74153;DHT22;62505;46.070;14.492;2023-08-08T01:55:42;23.50;62.10
74153;DHT22;62505;46.070;14.492;2023-08-08T01:58:09;23.50;62.10
74153;DHT22;62505;46.070;14.492;2023-08-08T02:00:37;23.50;62.00
74153;DHT22;62505;46.070;14.492;2023-08-08T02:03:06;23.50;62.00
74153;DHT22;62505;46.070;14.492;2023-08-08T02:05:33;23.50;61.90
74153;DHT22;62505;46.070;14.492;2023-08-08T02:08:00;23.50;61.90
74153;DHT22;62505;46.070;14.492;2023-08-08T02:10:27;23.50;61.90
74153;DHT22;62505;46.070;14.492;2023-08-08T02:12:54;23.50;61.90
74153;DHT22;62505;46.070;14.492;2023-08-08T02:15:21;23.50;61.80
74153;DHT22;62505;46.070;14.492;2023-08-08T02:17:50;23.50;61.70
74153;DHT22;62505;46.070;14.492;2023-08-08T02:20:17;23.40;61.70
74153;DHT22;62505;46.070;14.492;2023-08-08T02:22:44;23.40;61.70
74153;DHT22;62505;46.070;14.492;2023-08-08T02:25:11;23.50;61.70
74153;DHT22;62505;46.070;14.492;2023-08-08T02:27:39;23.40;61.50
74153;DHT22;62505;46.070;14.492;2023-08-08T02:30:07;23.40;61.70
74153;DHT22;62505;46.070;14.492;2023-08-08T02:32:34;23.50;61.70
74153;DHT22;62505;46.070;14.492;2023-08-08T02:35:02;23.40;61.60
74153;DHT22;62505;46.070;14.492;2023-08-08T02:37:29;23.40;61.60
74153;DHT22;62505;46.070;14.492;2023-08-08T02:39:56;23.40;61.70
74153;DHT22;62505;46.070;14.492;2023-08-08T02:42:23;23.40;61.70
74153;DHT22;62505;46.070;14.492;2023-08-08T02:44:50;23.40;62.50
74153;DHT22;62505;46.070;14.492;2023-08-08T02:47:17;23.40;61.70
74153;DHT22;62505;46.070;14.492;2023-08-08T02:49:44;23.50;61.70
74153;DHT22;62505;46.070;14.492;2023-08-08T02:52:13;23.40;61.60
74153;DHT22;62505;46.070;14.492;2023-08-08T02:54:40;23.40;61.60
74153;DHT22;62505;46.070;14.492;2023-08-08T02:57:07;23.40;61.60
74153;DHT22;62505;46.070;14.492;2023-08-08T02:59:36;23.40;61.70
74153;DHT22;62505;46.070;14.492;2023-08-08T03:02:03;23.40;61.80
74153;DHT22;62505;46.070;14.492;2023-08-08T03:04:30;23.40;61.80
74153;DHT22;62505;46.070;14.492;2023-08-08T03:06:57;23.40;61.80
74153;DHT22;62505;46.070;14.492;2023-08-08T03:09:28;23.40;61.90
74153;DHT22;62505;46.070;14.492;2023-08-08T03:11:55;23.40;61.90
74153;DHT22;62505;46.070;14.492;2023-08-08T03:14:22;23.40;61.90
74153;DHT22;62505;46.070;14.492;2023-08-08T03:16:49;23.40;61.80
74153;DHT22;62505;46.070;14.492;2023-08-08T03:19:16;23.40;61.80
74153;DHT22;62505;46.070;14.492;2023-08-08T03:21:43;23.40;61.90
74153;DHT22;62505;46.070;14.492;2023-08-08T03:24:10;23.40;61.80
74153;DHT22;62505;46.070;14.492;2023-08-08T03:26:38;23.40;61.90
74153;DHT22;62505;46.070;14.492;2023-08-08T03:29:05;23.40;61.80
74153;DHT22;62505;46.070;14.492;2023-08-08T03:31:35;23.40;61.80
74153;DHT22;62505;46.070;14.492;2023-08-08T03:34:02;23.40;61.80
74153;DHT22;62505;46.070;14.492;2023-08-08T03:36:30;23.40;61.80
74153;DHT22;62505;46.070;14.492;2023-08-08T03:38:57;23.40;62.00
74153;DHT22;62505;46.070;14.492;2023-08-08T03:41:24;23.40;61.90
74153;DHT22;62505;46.070;14.492;2023-08-08T03:43:53;23.40;62.00
74153;DHT22;62505;46.070;14.492;2023-08-08T03:46:21;23.40;62.00
74153;DHT22;62505;46.070;14.492;2023-08-08T03:48:48;23.40;61.90
74153;DHT22;62505;46.070;14.492;2023-08-08T03:51:15;23.40;61.80
74153;DHT22;62505;46.070;14.492;2023-08-08T03:53:42;23.40;62.00
74153;DHT22;62505;46.070;14.492;2023-08-08T03:56:09;23.40;62.00
74153;DHT22;62505;46.070;14.492;2023-08-08T03:58:37;23.40;62.10
74153;DHT22;62505;46.070;14.492;2023-08-08T04:01:06;23.40;62.00
74153;DHT22;62505;46.070;14.492;2023-08-08T04:03:33;23.40;61.90
74153;DHT22;62505;46.070;14.492;2023-08-08T04:06:00;23.40;62.00
74153;DHT22;62505;46.070;14.492;2023-08-08T04:08:27;23.40;62.00
74153;DHT22;62505;46.070;14.492;2023-08-08T04:10:54;23.40;62.10
74153;DHT22;62505;46.070;14.492;2023-08-08T04:13:21;23.40;62.60
74153;DHT22;62505;46.070;14.492;2023-08-08T04:15:48;23.40;62.10
74153;DHT22;62505;46.070;14.492;2023-08-08T04:18:18;23.40;62.30
74153;DHT22;62505;46.070;14.492;2023-08-08T04:20:46;23.40;63.10
74153;DHT22;62505;46.070;14.492;2023-08-08T04:23:13;23.40;65.60
74153;DHT22;62505;46.070;14.492;2023-08-08T04:25:40;23.40;66.40
74153;DHT22;62505;46.070;14.492;2023-08-08T04:28:07;23.40;65.80
74153;DHT22;62505;46.070;14.492;2023-08-08T04:30:34;23.40;65.60
74153;DHT22;62505;46.070;14.492;2023-08-08T04:33:02;23.40;65.60
74153;DHT22;62505;46.070;14.492;2023-08-08T04:35:30;23.40;65.50
74153;DHT22;62505;46.070;14.492;2023-08-08T04:37:57;23.40;64.90
74153;DHT22;62505;46.070;14.492;2023-08-08T04:40:24;23.50;65.60
74153;DHT22;62505;46.070;14.492;2023-08-08T04:42:51;23.50;66.50
74153;DHT22;62505;46.070;14.492;2023-08-08T04:45:18;23.50;66.90
74153;DHT22;62505;46.070;14.492;2023-08-08T04:47:46;23.50;67.10
74153;DHT22;62505;46.070;14.492;2023-08-08T04:50:13;23.50;66.60
74153;DHT22;62505;46.070;14.492;2023-08-08T04:52:42;23.50;66.70
74153;DHT22;62505;46.070;14.492;2023-08-08T04:55:09;23.50;65.90
74153;DHT22;62505;46.070;14.492;2023-08-08T04:57:36;23.50;65.60
74153;DHT22;62505;46.070;14.492;2023-08-08T05:00:04;23.50;65.40
74153;DHT22;62505;46.070;14.492;2023-08-08T05:02:34;23.50;65.00
74153;DHT22;62505;46.070;14.492;2023-08-08T05:05:02;23.50;65.10
74153;DHT22;62505;46.070;14.492;2023-08-08T05:07:29;23.50;64.60
74153;DHT22;62505;46.070;14.492;2023-08-08T05:09:57;23.50;64.20
74153;DHT22;62505;46.070;14.492;2023-08-08T05:12:24;23.50;64.60
74153;DHT22;62505;46.070;14.492;2023-08-08T05:14:51;23.40;64.50
74153;DHT22;62505;46.070;14.492;2023-08-08T05:17:18;23.50;64.80
74153;DHT22;62505;46.070;14.492;2023-08-08T05:19:45;23.50;64.30
74153;DHT22;62505;46.070;14.492;2023-08-08T05:22:12;23.40;64.00
74153;DHT22;62505;46.070;14.492;2023-08-08T05:24:39;23.40;63.30
74153;DHT22;62505;46.070;14.492;2023-08-08T05:27:08;23.40;63.60
74153;DHT22;62505;46.070;14.492;2023-08-08T05:29:35;23.40;63.60
74153;DHT22;62505;46.070;14.492;2023-08-08T05:32:04;23.40;63.40
74153;DHT22;62505;46.070;14.492;2023-08-08T05:34:32;23.40;64.00
74153;DHT22;62505;46.070;14.492;2023-08-08T05:36:59;23.40;64.50
74153;DHT22;62505;46.070;14.492;2023-08-08T05:39:26;23.40;64.30
74153;DHT22;62505;46.070;14.492;2023-08-08T05:41:53;23.40;64.60
74153;DHT22;62505;46.070;14.492;2023-08-08T05:44:21;23.40;63.80
74153;DHT22;62505;46.070;14.492;2023-08-08T05:46:48;23.40;64.50
74153;DHT22;62505;46.070;14.492;2023-08-08T05:49:15;23.40;64.00
74153;DHT22;62505;46.070;14.492;2023-08-08T05:51:42;23.40;64.20
74153;DHT22;62505;46.070;14.492;2023-08-08T05:54:09;23.40;63.40
74153;DHT22;62505;46.070;14.492;2023-08-08T05:56:37;23.40;63.70
74153;DHT22;62505;46.070;14.492;2023-08-08T05:59:04;23.40;64.30
74153;DHT22;62505;46.070;14.492;2023-08-08T06:01:33;23.40;64.10
74153;DHT22;62505;46.070;14.492;2023-08-08T06:04:01;23.40;63.90
74153;DHT22;62505;46.070;14.492;2023-08-08T06:06:29;23.40;64.10
74153;DHT22;62505;46.070;14.492;2023-08-08T06:08:56;23.40;64.20
74153;DHT22;62505;46.070;14.492;2023-08-08T06:11:23;23.40;64.70
74153;DHT22;62505;46.070;14.492;2023-08-08T06:13:50;23.40;64.00
74153;DHT22;62505;46.070;14.492;2023-08-08T06:16:17;23.40;63.70
74153;DHT22;62505;46.070;14.492;2023-08-08T06:18:45;23.40;64.00
74153;DHT22;62505;46.070;14.492;2023-08-08T06:21:12;23.40;63.20
74153;DHT22;62505;46.070;14.492;2023-08-08T06:23:39;23.40;63.70
74153;DHT22;62505;46.070;14.492;2023-08-08T06:26:06;23.40;63.20
74153;DHT22;62505;46.070;14.492;2023-08-08T06:28:33;23.40;63.70
74153;DHT22;62505;46.070;14.492;2023-08-08T06:31:00;23.40;63.60
74153;DHT22;62505;46.070;14.492;2023-08-08T06:33:27;23.40;63.20
74153;DHT22;62505;46.070;14.492;2023-08-08T06:35:57;23.40;63.20
74153;DHT22;62505;46.070;14.492;2023-08-08T06:38:24;23.40;63.50
74153;DHT22;62505;46.070;14.492;2023-08-08T06:40:51;23.40;63.50
74153;DHT22;62505;46.070;14.492;2023-08-08T06:43:18;23.40;63.70
74153;DHT22;62505;46.070;14.492;2023-08-08T06:45:45;23.50;63.60
74153;DHT22;62505;46.070;14.492;2023-08-08T06:48:12;23.40;64.30
74153;DHT22;62505;46.070;14.492;2023-08-08T06:50:39;23.40;64.30
74153;DHT22;62505;46.070;14.492;2023-08-08T06:53:07;23.40;64.70
74153;DHT22;62505;46.070;14.492;2023-08-08T06:55:34;23.50;64.70
74153;DHT22;62505;46.070;14.492;2023-08-08T06:58:01;23.50;64.60
74153;DHT22;62505;46.070;14.492;2023-08-08T07:00:28;23.50;64.70
74153;DHT22;62505;46.070;14.492;2023-08-08T07:02:55;23.50;64.70
74153;DHT22;62505;46.070;14.492;2023-08-08T07:05:23;23.50;64.90
74153;DHT22;62505;46.070;14.492;2023-08-08T07:07:50;23.50;65.10
74153;DHT22;62505;46.070;14.492;2023-08-08T07:10:18;23.50;65.10
74153;DHT22;62505;46.070;14.492;2023-08-08T07:12:45;23.50;65.30
74153;DHT22;62505;46.070;14.492;2023-08-08T07:15:13;23.50;65.40
74153;DHT22;62505;46.070;14.492;2023-08-08T07:17:40;23.60;65.60
74153;DHT22;62505;46.070;14.492;2023-08-08T07:20:07;23.60;65.60
74153;DHT22;62505;46.070;14.492;2023-08-08T07:22:39;23.50;65.40
74153;DHT22;62505;46.070;14.492;2023-08-08T07:25:07;23.60;65.50
74153;DHT22;62505;46.070;14.492;2023-08-08T07:27:35;23.60;65.50
74153;DHT22;62505;46.070;14.492;2023-08-08T07:30:05;23.60;65.50
74153;DHT22;62505;46.070;14.492;2023-08-08T07:32:36;23.60;65.60
74153;DHT22;62505;46.070;14.492;2023-08-08T07:35:07;23.60;65.70
74153;DHT22;62505;46.070;14.492;2023-08-08T07:37:34;23.60;65.70
74153;DHT22;62505;46.070;14.492;2023-08-08T07:40:03;23.60;65.60
74153;DHT22;62505;46.070;14.492;2023-08-08T07:42:41;23.60;65.40
74153;DHT22;62505;46.070;14.492;2023-08-08T07:45:08;23.60;65.40
74153;DHT22;62505;46.070;14.492;2023-08-08T07:47:35;23.60;65.30
74153;DHT22;62505;46.070;14.492;2023-08-08T07:50:02;23.60;65.40
74153;DHT22;62505;46.070;14.492;2023-08-08T07:52:29;23.60;65.40
74153;DHT22;62505;46.070;14.492;2023-08-08T07:54:56;23.60;65.40
74153;DHT22;62505;46.070;14.492;2023-08-08T07:57:26;23.60;65.40
74153;DHT22;62505;46.070;14.492;2023-08-08T07:59:54;23.60;65.40
74153;DHT22;62505;46.070;14.492;2023-08-08T08:02:22;23.60;65.40
74153;DHT22;62505;46.070;14.492;2023-08-08T08:04:49;23.60;65.60
74153;DHT22;62505;46.070;14.492;2023-08-08T08:07:17;23.60;65.70
74153;DHT22;62505;46.070;14.492;2023-08-08T08:09:45;23.60;65.40
74153;DHT22;62505;46.070;14.492;2023-08-08T08:12:15;23.60;65.40
74153;DHT22;62505;46.070;14.492;2023-08-08T08:14:42;23.60;65.10
74153;DHT22;62505;46.070;14.492;2023-08-08T08:17:11;23.60;65.10
74153;DHT22;62505;46.070;14.492;2023-08-08T08:19:38;23.60;65.40
74153;DHT22;62505;46.070;14.492;2023-08-08T08:22:06;23.60;65.40
74153;DHT22;62505;46.070;14.492;2023-08-08T08:24:34;23.60;65.30
74153;DHT22;62505;46.070;14.492;2023-08-08T08:27:02;23.60;65.10
74153;DHT22;62505;46.070;14.492;2023-08-08T08:29:29;23.60;65.40
74153;DHT22;62505;46.070;14.492;2023-08-08T08:32:01;23.60;65.40
74153;DHT22;62505;46.070;14.492;2023-08-08T08:34:30;23.60;65.40
74153;DHT22;62505;46.070;14.492;2023-08-08T08:36:57;23.60;65.40
74153;DHT22;62505;46.070;14.492;2023-08-08T08:39:24;23.60;65.40
74153;DHT22;62505;46.070;14.492;2023-08-08T08:42:00;23.60;65.00
74153;DHT22;62505;46.070;14.492;2023-08-08T08:44:31;23.60;65.20
74153;DHT22;62505;46.070;14.492;2023-08-08T08:47:01;23.60;65.30
74153;DHT22;62505;46.070;14.492;2023-08-08T08:49:30;23.60;65.10
74153;DHT22;62505;46.070;14.492;2023-08-08T08:51:59;23.60;65.30
74153;DHT22;62505;46.070;14.492;2023-08-08T08:54:27;23.60;65.30
74153;DHT22;62505;46.070;14.492;2023-08-08T08:56:56;23.60;65.20
74153;DHT22;62505;46.070;14.492;2023-08-08T08:59:24;23.60;65.20
74153;DHT22;62505;46.070;14.492;2023-08-08T09:01:51;23.60;65.40
74153;DHT22;62505;46.070;14.492;2023-08-08T09:04:19;23.60;65.10
74153;DHT22;62505;46.070;14.492;2023-08-08T09:06:49;23.60;65.40
74153;DHT22;62505;46.070;14.492;2023-08-08T09:09:17;23.60;65.20
74153;DHT22;62505;46.070;14.492;2023-08-08T09:11:48;23.60;65.30
74153;DHT22;62505;46.070;14.492;2023-08-08T09:14:16;23.60;65.50
74153;DHT22;62505;46.070;14.492;2023-08-08T09:16:44;23.60;65.40
74153;DHT22;62505;46.070;14.492;2023-08-08T09:19:12;23.60;65.40
74153;DHT22;62505;46.070;14.492;2023-08-08T09:21:39;23.60;66.20
74153;DHT22;62505;46.070;14.492;2023-08-08T09:24:07;23.60;65.40
74153;DHT22;62505;46.070;14.492;2023-08-08T09:26:35;23.60;65.60
74153;DHT22;62505;46.070;14.492;2023-08-08T09:29:02;23.60;65.50
74153;DHT22;62505;46.070;14.492;2023-08-08T09:31:29;23.60;65.40
74153;DHT22;62505;46.070;14.492;2023-08-08T09:33:58;23.60;65.50
74153;DHT22;62505;46.070;14.492;2023-08-08T09:36:25;23.60;65.50
74153;DHT22;62505;46.070;14.492;2023-08-08T09:38:52;23.60;65.40
74153;DHT22;62505;46.070;14.492;2023-08-08T09:41:21;23.60;65.70
74153;DHT22;62505;46.070;14.492;2023-08-08T09:43:48;23.60;65.70
74153;DHT22;62505;46.070;14.492;2023-08-08T09:46:16;23.60;65.60
74153;DHT22;62505;46.070;14.492;2023-08-08T09:48:43;23.60;66.40
74153;DHT22;62505;46.070;14.492;2023-08-08T09:51:10;23.60;65.60
74153;DHT22;62505;46.070;14.492;2023-08-08T09:53:39;23.60;65.60
74153;DHT22;62505;46.070;14.492;2023-08-08T09:56:07;23.60;65.70
74153;DHT22;62505;46.070;14.492;2023-08-08T09:58:35;23.60;66.40
74153;DHT22;62505;46.070;14.492;2023-08-08T10:01:02;23.60;66.10
74153;DHT22;62505;46.070;14.492;2023-08-08T10:03:31;23.60;65.70
74153;DHT22;62505;46.070;14.492;2023-08-08T10:05:58;23.60;65.50
74153;DHT22;62505;46.070;14.492;2023-08-08T10:08:26;23.60;65.30
74153;DHT22;62505;46.070;14.492;2023-08-08T10:10:53;23.60;65.30
74153;DHT22;62505;46.070;14.492;2023-08-08T10:13:26;23.70;64.90
74153;DHT22;62505;46.070;14.492;2023-08-08T10:15:55;23.70;64.40
74153;DHT22;62505;46.070;14.492;2023-08-08T10:18:23;23.70;64.50
74153;DHT22;62505;46.070;14.492;2023-08-08T10:20:51;23.80;64.40
74153;DHT22;62505;46.070;14.492;2023-08-08T10:23:19;23.70;64.50
74153;DHT22;62505;46.070;14.492;2023-08-08T10:25:48;23.70;64.20
74153;DHT22;62505;46.070;14.492;2023-08-08T10:28:19;23.80;64.30
74153;DHT22;62505;46.070;14.492;2023-08-08T10:30:48;23.80;64.00
74153;DHT22;62505;46.070;14.492;2023-08-08T10:33:18;23.70;64.00
74153;DHT22;62505;46.070;14.492;2023-08-08T10:35:58;23.80;63.80
74153;DHT22;62505;46.070;14.492;2023-08-08T10:38:26;23.80;63.20
74153;DHT22;62505;46.070;14.492;2023-08-08T10:40:56;23.80;63.30
74153;DHT22;62505;46.070;14.492;2023-08-08T10:43:27;23.80;62.90
74153;DHT22;62505;46.070;14.492;2023-08-08T10:45:57;23.80;63.70
74153;DHT22;62505;46.070;14.492;2023-08-08T10:48:27;23.80;62.70
74153;DHT22;62505;46.070;14.492;2023-08-08T10:50:55;23.80;63.40
74153;DHT22;62505;46.070;14.492;2023-08-08T10:53:23;23.80;63.30
74153;DHT22;62505;46.070;14.492;2023-08-08T10:55:58;23.80;63.20
74153;DHT22;62505;46.070;14.492;2023-08-08T10:58:35;23.80;62.80
74153;DHT22;62505;46.070;14.492;2023-08-08T11:01:03;23.80;63.00
74153;DHT22;62505;46.070;14.492;2023-08-08T11:03:36;23.80;62.70
74153;DHT22;62505;46.070;14.492;2023-08-08T11:06:06;23.80;62.50
74153;DHT22;62505;46.070;14.492;2023-08-08T11:08:33;23.80;62.60
74153;DHT22;62505;46.070;14.492;2023-08-08T11:11:02;23.80;62.20
74153;DHT22;62505;46.070;14.492;2023-08-08T11:13:29;23.80;62.20
74153;DHT22;62505;46.070;14.492;2023-08-08T11:15:56;23.80;63.30
74153;DHT22;62505;46.070;14.492;2023-08-08T11:18:24;23.80;62.70
74153;DHT22;62505;46.070;14.492;2023-08-08T11:20:52;23.80;62.60
74153;DHT22;62505;46.070;14.492;2023-08-08T11:23:20;23.80;63.10
74153;DHT22;62505;46.070;14.492;2023-08-08T11:25:47;23.80;62.90
74153;DHT22;62505;46.070;14.492;2023-08-08T11:28:16;23.80;63.10
74153;DHT22;62505;46.070;14.492;2023-08-08T11:30:45;23.80;62.00
74153;DHT22;62505;46.070;14.492;2023-08-08T11:33:13;23.70;61.30
74153;DHT22;62505;46.070;14.492;2023-08-08T11:35:44;23.70;61.80
74153;DHT22;62505;46.070;14.492;2023-08-08T11:38:16;23.70;62.10
74153;DHT22;62505;46.070;14.492;2023-08-08T11:40:44;23.70;60.50
74153;DHT22;62505;46.070;14.492;2023-08-08T11:43:11;23.70;60.20
74153;DHT22;62505;46.070;14.492;2023-08-08T11:45:39;23.70;60.20
74153;DHT22;62505;46.070;14.492;2023-08-08T11:48:08;23.70;60.30
74153;DHT22;62505;46.070;14.492;2023-08-08T11:50:37;23.70;60.00
74153;DHT22;62505;46.070;14.492;2023-08-08T11:53:06;23.70;60.40
74153;DHT22;62505;46.070;14.492;2023-08-08T11:55:36;23.70;60.10
74153;DHT22;62505;46.070;14.492;2023-08-08T11:58:04;23.60;60.40
74153;DHT22;62505;46.070;14.492;2023-08-08T12:00:31;23.70;60.60
74153;DHT22;62505;46.070;14.492;2023-08-08T12:03:01;23.60;60.40
74153;DHT22;62505;46.070;14.492;2023-08-08T12:05:30;23.60;60.50
74153;DHT22;62505;46.070;14.492;2023-08-08T12:08:04;23.60;59.80
74153;DHT22;62505;46.070;14.492;2023-08-08T12:10:32;23.60;60.10
74153;DHT22;62505;46.070;14.492;2023-08-08T12:13:00;23.70;60.20
74153;DHT22;62505;46.070;14.492;2023-08-08T12:15:32;23.70;60.10
74153;DHT22;62505;46.070;14.492;2023-08-08T12:18:02;23.70;60.40
74153;DHT22;62505;46.070;14.492;2023-08-08T12:20:29;23.70;60.10
74153;DHT22;62505;46.070;14.492;2023-08-08T12:22:56;23.70;60.30
74153;DHT22;62505;46.070;14.492;2023-08-08T12:25:23;23.80;60.50
74153;DHT22;62505;46.070;14.492;2023-08-08T12:27:51;23.80;60.40
74153;DHT22;62505;46.070;14.492;2023-08-08T12:30:20;23.80;60.30
74153;DHT22;62505;46.070;14.492;2023-08-08T12:32:47;23.80;60.00
74153;DHT22;62505;46.070;14.492;2023-08-08T12:35:14;23.80;60.00
74153;DHT22;62505;46.070;14.492;2023-08-08T12:37:41;23.80;60.10
74153;DHT22;62505;46.070;14.492;2023-08-08T12:40:09;23.80;59.90
74153;DHT22;62505;46.070;14.492;2023-08-08T12:42:36;23.80;59.90
74153;DHT22;62505;46.070;14.492;2023-08-08T12:45:04;23.80;60.00
74153;DHT22;62505;46.070;14.492;2023-08-08T12:47:33;23.80;60.10
74153;DHT22;62505;46.070;14.492;2023-08-08T12:50:02;23.80;60.20
74153;DHT22;62505;46.070;14.492;2023-08-08T12:52:29;23.80;60.10
74153;DHT22;62505;46.070;14.492;2023-08-08T12:54:56;23.80;60.10
74153;DHT22;62505;46.070;14.492;2023-08-08T12:57:23;23.80;60.40
74153;DHT22;62505;46.070;14.492;2023-08-08T12:59:50;23.90;60.40
74153;DHT22;62505;46.070;14.492;2023-08-08T13:02:18;23.90;60.40
74153;DHT22;62505;46.070;14.492;2023-08-08T13:04:46;23.80;60.30
74153;DHT22;62505;46.070;14.492;2023-08-08T13:07:13;23.90;60.70
74153;DHT22;62505;46.070;14.492;2023-08-08T13:09:40;23.90;60.60
74153;DHT22;62505;46.070;14.492;2023-08-08T13:12:07;23.90;60.70
74153;DHT22;62505;46.070;14.492;2023-08-08T13:14:34;23.90;60.90
74153;DHT22;62505;46.070;14.492;2023-08-08T13:17:02;23.90;59.50
74153;DHT22;62505;46.070;14.492;2023-08-08T13:19:29;23.90;60.10
74153;DHT22;62505;46.070;14.492;2023-08-08T13:21:57;23.80;60.50
74153;DHT22;62505;46.070;14.492;2023-08-08T13:24:25;23.90;60.60
74153;DHT22;62505;46.070;14.492;2023-08-08T13:26:52;23.90;60.60
74153;DHT22;62505;46.070;14.492;2023-08-08T13:29:19;23.90;60.80
74153;DHT22;62505;46.070;14.492;2023-08-08T13:31:45;23.90;60.70
74153;DHT22;62505;46.070;14.492;2023-08-08T13:34:12;24.00;60.40
74153;DHT22;62505;46.070;14.492;2023-08-08T13:36:40;24.00;60.80
74153;DHT22;62505;46.070;14.492;2023-08-08T13:39:08;24.00;60.50
74153;DHT22;62505;46.070;14.492;2023-08-08T13:41:36;24.00;60.50
74153;DHT22;62505;46.070;14.492;2023-08-08T13:44:04;24.00;60.30
74153;DHT22;62505;46.070;14.492;2023-08-08T13:46:31;24.00;60.20
74153;DHT22;62505;46.070;14.492;2023-08-08T13:48:58;24.00;60.30
74153;DHT22;62505;46.070;14.492;2023-08-08T13:51:25;24.00;59.80
74153;DHT22;62505;46.070;14.492;2023-08-08T13:53:52;24.00;58.80
74153;DHT22;62505;46.070;14.492;2023-08-08T13:56:21;23.90;57.30
74153;DHT22;62505;46.070;14.492;2023-08-08T13:58:48;23.90;57.80
74153;DHT22;62505;46.070;14.492;2023-08-08T14:01:15;23.90;57.70
74153;DHT22;62505;46.070;14.492;2023-08-08T14:03:42;23.90;57.20
74153;DHT22;62505;46.070;14.492;2023-08-08T14:06:09;23.90;57.70
74153;DHT22;62505;46.070;14.492;2023-08-08T14:08:36;23.90;57.60
74153;DHT22;62505;46.070;14.492;2023-08-08T14:11:03;23.90;57.70
74153;DHT22;62505;46.070;14.492;2023-08-08T14:13:32;23.90;57.30
74153;DHT22;62505;46.070;14.492;2023-08-08T14:16:00;23.90;57.40
74153;DHT22;62505;46.070;14.492;2023-08-08T14:18:27;23.90;57.40
74153;DHT22;62505;46.070;14.492;2023-08-08T14:20:54;23.90;56.90
74153;DHT22;62505;46.070;14.492;2023-08-08T14:23:21;23.90;56.30
74153;DHT22;62505;46.070;14.492;2023-08-08T14:25:48;24.00;56.50
74153;DHT22;62505;46.070;14.492;2023-08-08T14:28:15;23.90;56.80
74153;DHT22;62505;46.070;14.492;2023-08-08T14:30:43;23.90;56.00
74153;DHT22;62505;46.070;14.492;2023-08-08T14:33:12;23.90;55.70
74153;DHT22;62505;46.070;14.492;2023-08-08T14:35:39;23.90;54.60
74153;DHT22;62505;46.070;14.492;2023-08-08T14:38:06;24.00;55.40
74153;DHT22;62505;46.070;14.492;2023-08-08T14:40:33;24.00;56.10
74153;DHT22;62505;46.070;14.492;2023-08-08T14:43:00;24.00;56.30
74153;DHT22;62505;46.070;14.492;2023-08-08T14:45:28;24.00;56.20
74153;DHT22;62505;46.070;14.492;2023-08-08T14:47:56;23.90;55.30
74153;DHT22;62505;46.070;14.492;2023-08-08T14:50:23;24.00;53.20
74153;DHT22;62505;46.070;14.492;2023-08-08T14:52:50;24.00;52.20
74153;DHT22;62505;46.070;14.492;2023-08-08T14:55:17;24.00;51.70
74153;DHT22;62505;46.070;14.492;2023-08-08T14:57:44;24.00;52.30
74153;DHT22;62505;46.070;14.492;2023-08-08T15:00:12;24.00;51.90
74153;DHT22;62505;46.070;14.492;2023-08-08T15:02:39;24.00;51.70
74153;DHT22;62505;46.070;14.492;2023-08-08T15:05:08;24.00;52.30
74153;DHT22;62505;46.070;14.492;2023-08-08T15:07:36;23.90;52.80
74153;DHT22;62505;46.070;14.492;2023-08-08T15:10:04;23.90;53.40
74153;DHT22;62505;46.070;14.492;2023-08-08T15:12:31;23.90;53.60
74153;DHT22;62505;46.070;14.492;2023-08-08T15:14:58;23.90;53.50
74153;DHT22;62505;46.070;14.492;2023-08-08T15:17:25;23.90;52.70
74153;DHT22;62505;46.070;14.492;2023-08-08T15:19:52;24.00;53.00